KPHD

Harry Clever Field Airport

New Philadelphia, Ohio, USA
METAR KPHD 191653Z AUTO VRB03KT 10SM CLR 24/16 A3003 RMK AO2 SLP163 T02390161 $
Observed Flight Rules
Aug-19 @ 16:53 UTC (19 minutes ago) Visual Flight Rules
Wind Visibility Clouds
Variable at 3 knots 10 miles
  • Clear skies
Temperatures Readings
Current 24°C / 75°F
Dewpoint 16°C / 61°F
Humidity 61%
Altimeter 30.03" Hg
Pressure 1016.3 hPa
Elevation 272
METAR KPHD 191653Z AUTO VRB03KT 10SM CLR 24/16 A3003 RMK AO2 SLP163 T02390161 $
Observed Flight Rules
Aug-19 @ 16:53 UTC
(19 minutes ago)
VFR
Wind Visibility
Variable at 3 knots 10 miles
Clouds
  • Clear skies
Temperature Dewpoint
24°C / 75°F 16°C / 61°F
Humidity Altimeter Pressure
61% 30.03" Hg 1016.3 hPa